sensor_id;sensor_type;location;lat;lon;timestamp;P1;durP1;ratioP1;P2;durP2;ratioP2
52300;SDS011;38528;53.214;6.562;2022-11-15T00:01:45;27.20;;;19.08;;
52300;SDS011;38528;53.214;6.562;2022-11-15T00:04:11;29.40;;;18.92;;
52300;SDS011;38528;53.214;6.562;2022-11-15T00:06:37;28.75;;;18.73;;
52300;SDS011;38528;53.214;6.562;2022-11-15T00:09:02;30.20;;;19.33;;
52300;SDS011;38528;53.214;6.562;2022-11-15T00:11:28;28.23;;;18.60;;
52300;SDS011;38528;53.214;6.562;2022-11-15T00:13:55;28.92;;;19.63;;
52300;SDS011;38528;53.214;6.562;2022-11-15T00:16:21;24.70;;;18.20;;
52300;SDS011;38528;53.214;6.562;2022-11-15T00:18:47;26.38;;;18.80;;
52300;SDS011;38528;53.214;6.562;2022-11-15T00:21:13;26.63;;;19.65;;
52300;SDS011;38528;53.214;6.562;2022-11-15T00:23:42;26.83;;;18.48;;
52300;SDS011;38528;53.214;6.562;2022-11-15T00:26:12;27.40;;;18.90;;
52300;SDS011;38528;53.214;6.562;2022-11-15T00:28:39;27.77;;;19.98;;
52300;SDS011;38528;53.214;6.562;2022-11-15T00:31:06;27.02;;;18.38;;
52300;SDS011;38528;53.214;6.562;2022-11-15T00:33:34;26.35;;;18.95;;
52300;SDS011;38528;53.214;6.562;2022-11-15T00:36:03;29.40;;;19.05;;
52300;SDS011;38528;53.214;6.562;2022-11-15T00:38:34;27.73;;;19.67;;
52300;SDS011;38528;53.214;6.562;2022-11-15T00:41:01;27.77;;;18.88;;
52300;SDS011;38528;53.214;6.562;2022-11-15T00:43:28;25.52;;;18.20;;
52300;SDS011;38528;53.214;6.562;2022-11-15T00:45:54;26.48;;;19.00;;
52300;SDS011;38528;53.214;6.562;2022-11-15T00:48:19;26.73;;;18.50;;
52300;SDS011;38528;53.214;6.562;2022-11-15T00:50:45;28.85;;;19.15;;
52300;SDS011;38528;53.214;6.562;2022-11-15T00:53:11;25.95;;;17.90;;
52300;SDS011;38528;53.214;6.562;2022-11-15T00:55:37;28.02;;;18.73;;
52300;SDS011;38528;53.214;6.562;2022-11-15T00:58:02;26.95;;;19.10;;
52300;SDS011;38528;53.214;6.562;2022-11-15T01:00:28;25.13;;;17.70;;
52300;SDS011;38528;53.214;6.562;2022-11-15T01:02:53;25.73;;;17.90;;
52300;SDS011;38528;53.214;6.562;2022-11-15T01:05:19;26.10;;;17.95;;
52300;SDS011;38528;53.214;6.562;2022-11-15T01:07:45;27.45;;;18.55;;
52300;SDS011;38528;53.214;6.562;2022-11-15T01:10:12;26.52;;;18.35;;
52300;SDS011;38528;53.214;6.562;2022-11-15T01:12:37;24.42;;;17.42;;
52300;SDS011;38528;53.214;6.562;2022-11-15T01:15:03;23.80;;;16.67;;
52300;SDS011;38528;53.214;6.562;2022-11-15T01:17:30;23.13;;;17.05;;
52300;SDS011;38528;53.214;6.562;2022-11-15T01:19:56;27.08;;;17.55;;
52300;SDS011;38528;53.214;6.562;2022-11-15T01:22:22;25.25;;;17.48;;
52300;SDS011;38528;53.214;6.562;2022-11-15T01:24:51;23.45;;;17.25;;
52300;SDS011;38528;53.214;6.562;2022-11-15T01:27:16;24.55;;;17.15;;
52300;SDS011;38528;53.214;6.562;2022-11-15T01:29:42;26.60;;;17.38;;
52300;SDS011;38528;53.214;6.562;2022-11-15T01:32:07;27.27;;;17.25;;
52300;SDS011;38528;53.214;6.562;2022-11-15T01:34:33;25.05;;;17.77;;
52300;SDS011;38528;53.214;6.562;2022-11-15T01:36:59;25.38;;;17.02;;
52300;SDS011;38528;53.214;6.562;2022-11-15T01:39:24;26.30;;;17.38;;
52300;SDS011;38528;53.214;6.562;2022-11-15T01:41:51;29.40;;;18.95;;
52300;SDS011;38528;53.214;6.562;2022-11-15T01:44:34;29.17;;;19.70;;
52300;SDS011;38528;53.214;6.562;2022-11-15T01:47:15;26.70;;;18.55;;
52300;SDS011;38528;53.214;6.562;2022-11-15T01:52:30;27.27;;;19.20;;
52300;SDS011;38528;53.214;6.562;2022-11-15T01:57:30;29.05;;;19.20;;
52300;SDS011;38528;53.214;6.562;2022-11-15T01:59:56;26.70;;;18.23;;
52300;SDS011;38528;53.214;6.562;2022-11-15T02:02:22;27.35;;;17.65;;
52300;SDS011;38528;53.214;6.562;2022-11-15T02:04:48;27.15;;;17.40;;
52300;SDS011;38528;53.214;6.562;2022-11-15T02:07:17;28.13;;;18.88;;
52300;SDS011;38528;53.214;6.562;2022-11-15T02:09:45;29.15;;;19.30;;
52300;SDS011;38528;53.214;6.562;2022-11-15T02:12:12;29.70;;;19.02;;
52300;SDS011;38528;53.214;6.562;2022-11-15T02:14:42;25.52;;;16.80;;
52300;SDS011;38528;53.214;6.562;2022-11-15T02:17:17;28.35;;;18.95;;
52300;SDS011;38528;53.214;6.562;2022-11-15T02:20:10;29.75;;;19.13;;
52300;SDS011;38528;53.214;6.562;2022-11-15T02:31:27;28.52;;;18.65;;
52300;SDS011;38528;53.214;6.562;2022-11-15T02:34:04;26.17;;;18.38;;
52300;SDS011;38528;53.214;6.562;2022-11-15T02:42:21;28.92;;;18.58;;
52300;SDS011;38528;53.214;6.562;2022-11-15T02:45:10;30.10;;;19.02;;
52300;SDS011;38528;53.214;6.562;2022-11-15T02:47:42;30.25;;;19.15;;
52300;SDS011;38528;53.214;6.562;2022-11-15T02:50:11;27.10;;;18.58;;
52300;SDS011;38528;53.214;6.562;2022-11-15T02:52:38;29.02;;;18.65;;
52300;SDS011;38528;53.214;6.562;2022-11-15T02:55:04;32.17;;;19.23;;
52300;SDS011;38528;53.214;6.562;2022-11-15T03:00:11;32.45;;;19.58;;
52300;SDS011;38528;53.214;6.562;2022-11-15T03:05:53;35.72;;;19.83;;
52300;SDS011;38528;53.214;6.562;2022-11-15T03:08:38;33.50;;;20.13;;
52300;SDS011;38528;53.214;6.562;2022-11-15T03:11:24;33.08;;;19.45;;
52300;SDS011;38528;53.214;6.562;2022-11-15T03:13:56;33.83;;;20.75;;
52300;SDS011;38528;53.214;6.562;2022-11-15T03:19:23;35.38;;;21.70;;
52300;SDS011;38528;53.214;6.562;2022-11-15T03:21:51;37.90;;;20.23;;
52300;SDS011;38528;53.214;6.562;2022-11-15T03:24:19;37.92;;;21.02;;
52300;SDS011;38528;53.214;6.562;2022-11-15T03:26:46;38.47;;;21.48;;
52300;SDS011;38528;53.214;6.562;2022-11-15T03:29:16;36.05;;;21.65;;
52300;SDS011;38528;53.214;6.562;2022-11-15T03:31:49;39.95;;;21.33;;
52300;SDS011;38528;53.214;6.562;2022-11-15T03:34:31;36.30;;;20.58;;
52300;SDS011;38528;53.214;6.562;2022-11-15T03:37:00;39.22;;;21.38;;
52300;SDS011;38528;53.214;6.562;2022-11-15T03:39:26;38.40;;;20.95;;
52300;SDS011;38528;53.214;6.562;2022-11-15T03:50:28;37.65;;;21.75;;
52300;SDS011;38528;53.214;6.562;2022-11-15T03:52:55;37.17;;;20.50;;
52300;SDS011;38528;53.214;6.562;2022-11-15T03:55:21;38.17;;;21.40;;
52300;SDS011;38528;53.214;6.562;2022-11-15T03:57:48;35.83;;;21.05;;
52300;SDS011;38528;53.214;6.562;2022-11-15T04:00:15;37.15;;;20.42;;
52300;SDS011;38528;53.214;6.562;2022-11-15T04:02:41;39.67;;;21.33;;
52300;SDS011;38528;53.214;6.562;2022-11-15T04:05:07;35.70;;;20.25;;
52300;SDS011;38528;53.214;6.562;2022-11-15T04:07:33;35.03;;;20.13;;
52300;SDS011;38528;53.214;6.562;2022-11-15T04:09:58;34.45;;;19.92;;
52300;SDS011;38528;53.214;6.562;2022-11-15T04:12:27;37.38;;;20.88;;
52300;SDS011;38528;53.214;6.562;2022-11-15T04:17:33;34.50;;;19.30;;
52300;SDS011;38528;53.214;6.562;2022-11-15T04:20:13;39.38;;;21.23;;
52300;SDS011;38528;53.214;6.562;2022-11-15T04:23:02;39.50;;;20.70;;
52300;SDS011;38528;53.214;6.562;2022-11-15T04:25:52;38.05;;;21.30;;
52300;SDS011;38528;53.214;6.562;2022-11-15T04:28:19;37.78;;;21.52;;
52300;SDS011;38528;53.214;6.562;2022-11-15T04:30:44;40.53;;;20.63;;
52300;SDS011;38528;53.214;6.562;2022-11-15T04:33:10;39.00;;;20.95;;
52300;SDS011;38528;53.214;6.562;2022-11-15T04:35:36;38.53;;;21.70;;
52300;SDS011;38528;53.214;6.562;2022-11-15T04:38:03;42.13;;;21.38;;
52300;SDS011;38528;53.214;6.562;2022-11-15T04:40:30;41.38;;;21.77;;
52300;SDS011;38528;53.214;6.562;2022-11-15T04:42:56;43.08;;;22.33;;
52300;SDS011;38528;53.214;6.562;2022-11-15T04:45:22;44.72;;;22.60;;
52300;SDS011;38528;53.214;6.562;2022-11-15T04:47:47;47.22;;;23.42;;
52300;SDS011;38528;53.214;6.562;2022-11-15T04:50:13;43.97;;;22.58;;
52300;SDS011;38528;53.214;6.562;2022-11-15T04:52:43;44.20;;;22.50;;
52300;SDS011;38528;53.214;6.562;2022-11-15T04:55:16;47.05;;;23.35;;
52300;SDS011;38528;53.214;6.562;2022-11-15T04:57:41;44.10;;;22.38;;
52300;SDS011;38528;53.214;6.562;2022-11-15T05:00:08;45.20;;;22.25;;
52300;SDS011;38528;53.214;6.562;2022-11-15T05:02:36;44.35;;;23.63;;
52300;SDS011;38528;53.214;6.562;2022-11-15T05:05:20;52.15;;;24.35;;
52300;SDS011;38528;53.214;6.562;2022-11-15T05:07:46;58.42;;;25.15;;
52300;SDS011;38528;53.214;6.562;2022-11-15T05:10:11;55.90;;;25.20;;
52300;SDS011;38528;53.214;6.562;2022-11-15T05:12:37;49.72;;;24.65;;
52300;SDS011;38528;53.214;6.562;2022-11-15T05:15:03;48.30;;;25.20;;
52300;SDS011;38528;53.214;6.562;2022-11-15T05:17:29;50.15;;;24.92;;
52300;SDS011;38528;53.214;6.562;2022-11-15T05:19:55;61.45;;;26.50;;
52300;SDS011;38528;53.214;6.562;2022-11-15T05:22:21;60.80;;;27.20;;
52300;SDS011;38528;53.214;6.562;2022-11-15T05:24:47;57.33;;;26.45;;
52300;SDS011;38528;53.214;6.562;2022-11-15T05:27:12;63.30;;;28.23;;
52300;SDS011;38528;53.214;6.562;2022-11-15T05:29:38;61.70;;;27.27;;
52300;SDS011;38528;53.214;6.562;2022-11-15T05:32:04;66.25;;;28.60;;
52300;SDS011;38528;53.214;6.562;2022-11-15T05:34:31;67.13;;;28.27;;
52300;SDS011;38528;53.214;6.562;2022-11-15T05:36:57;71.03;;;30.00;;
52300;SDS011;38528;53.214;6.562;2022-11-15T05:39:23;77.13;;;31.30;;
52300;SDS011;38528;53.214;6.562;2022-11-15T05:41:54;75.97;;;29.90;;
52300;SDS011;38528;53.214;6.562;2022-11-15T05:44:24;70.35;;;30.10;;
52300;SDS011;38528;53.214;6.562;2022-11-15T05:46:51;76.55;;;31.30;;
52300;SDS011;38528;53.214;6.562;2022-11-15T05:49:20;80.85;;;31.67;;
52300;SDS011;38528;53.214;6.562;2022-11-15T05:51:51;73.05;;;32.58;;
52300;SDS011;38528;53.214;6.562;2022-11-15T05:54:18;91.80;;;32.53;;
52300;SDS011;38528;53.214;6.562;2022-11-15T05:56:46;80.38;;;31.70;;
52300;SDS011;38528;53.214;6.562;2022-11-15T05:59:12;80.00;;;33.58;;
52300;SDS011;38528;53.214;6.562;2022-11-15T06:01:38;82.18;;;34.67;;
52300;SDS011;38528;53.214;6.562;2022-11-15T06:04:04;90.72;;;34.38;;
52300;SDS011;38528;53.214;6.562;2022-11-15T06:06:30;85.50;;;33.67;;
52300;SDS011;38528;53.214;6.562;2022-11-15T06:08:55;94.47;;;35.72;;
52300;SDS011;38528;53.214;6.562;2022-11-15T06:11:21;89.30;;;35.97;;
52300;SDS011;38528;53.214;6.562;2022-11-15T06:13:47;96.28;;;36.78;;
52300;SDS011;38528;53.214;6.562;2022-11-15T06:16:12;95.90;;;36.28;;
52300;SDS011;38528;53.214;6.562;2022-11-15T06:18:38;98.88;;;35.97;;
52300;SDS011;38528;53.214;6.562;2022-11-15T06:21:04;99.82;;;35.95;;
52300;SDS011;38528;53.214;6.562;2022-11-15T06:23:34;94.00;;;36.63;;
52300;SDS011;38528;53.214;6.562;2022-11-15T06:26:00;95.30;;;37.17;;
52300;SDS011;38528;53.214;6.562;2022-11-15T06:28:31;92.50;;;37.00;;
52300;SDS011;38528;53.214;6.562;2022-11-15T06:31:04;92.93;;;36.67;;
52300;SDS011;38528;53.214;6.562;2022-11-15T06:33:34;87.90;;;37.17;;
52300;SDS011;38528;53.214;6.562;2022-11-15T06:36:01;84.97;;;35.75;;
52300;SDS011;38528;53.214;6.562;2022-11-15T06:38:30;84.85;;;36.83;;
52300;SDS011;38528;53.214;6.562;2022-11-15T06:41:00;89.07;;;37.95;;
52300;SDS011;38528;53.214;6.562;2022-11-15T06:43:27;83.30;;;36.03;;
52300;SDS011;38528;53.214;6.562;2022-11-15T06:45:53;94.15;;;37.65;;
52300;SDS011;38528;53.214;6.562;2022-11-15T06:48:18;85.85;;;35.75;;
52300;SDS011;38528;53.214;6.562;2022-11-15T06:50:50;84.88;;;35.03;;
52300;SDS011;38528;53.214;6.562;2022-11-15T06:53:19;93.30;;;38.03;;
52300;SDS011;38528;53.214;6.562;2022-11-15T06:55:45;90.13;;;38.08;;
52300;SDS011;38528;53.214;6.562;2022-11-15T06:58:10;89.97;;;37.58;;
52300;SDS011;38528;53.214;6.562;2022-11-15T07:00:36;92.00;;;37.85;;
52300;SDS011;38528;53.214;6.562;2022-11-15T07:03:02;83.75;;;35.67;;
52300;SDS011;38528;53.214;6.562;2022-11-15T07:05:28;73.97;;;34.28;;
52300;SDS011;38528;53.214;6.562;2022-11-15T07:07:55;88.38;;;36.22;;
52300;SDS011;38528;53.214;6.562;2022-11-15T07:10:22;78.55;;;35.50;;
52300;SDS011;38528;53.214;6.562;2022-11-15T07:12:50;81.97;;;35.67;;
52300;SDS011;38528;53.214;6.562;2022-11-15T07:15:20;89.03;;;37.28;;
52300;SDS011;38528;53.214;6.562;2022-11-15T07:17:47;94.20;;;37.85;;
52300;SDS011;38528;53.214;6.562;2022-11-15T07:20:13;91.18;;;35.95;;
52300;SDS011;38528;53.214;6.562;2022-11-15T07:22:40;93.28;;;37.58;;
52300;SDS011;38528;53.214;6.562;2022-11-15T07:25:06;89.25;;;38.15;;
52300;SDS011;38528;53.214;6.562;2022-11-15T07:27:32;81.47;;;36.50;;
52300;SDS011;38528;53.214;6.562;2022-11-15T07:29:57;86.57;;;36.58;;
52300;SDS011;38528;53.214;6.562;2022-11-15T07:32:24;77.90;;;35.55;;
52300;SDS011;38528;53.214;6.562;2022-11-15T07:34:50;82.68;;;36.42;;
52300;SDS011;38528;53.214;6.562;2022-11-15T07:37:16;80.20;;;34.67;;
52300;SDS011;38528;53.214;6.562;2022-11-15T07:39:42;76.97;;;34.42;;
52300;SDS011;38528;53.214;6.562;2022-11-15T07:42:08;81.88;;;35.22;;
52300;SDS011;38528;53.214;6.562;2022-11-15T07:44:53;73.13;;;34.60;;
52300;SDS011;38528;53.214;6.562;2022-11-15T07:47:18;76.55;;;34.90;;
52300;SDS011;38528;53.214;6.562;2022-11-15T07:49:44;68.68;;;33.45;;
52300;SDS011;38528;53.214;6.562;2022-11-15T07:52:11;74.93;;;35.13;;
52300;SDS011;38528;53.214;6.562;2022-11-15T07:54:37;69.50;;;33.17;;
52300;SDS011;38528;53.214;6.562;2022-11-15T07:57:03;68.97;;;34.33;;
52300;SDS011;38528;53.214;6.562;2022-11-15T07:59:29;69.15;;;33.50;;
52300;SDS011;38528;53.214;6.562;2022-11-15T08:01:55;61.03;;;31.33;;
52300;SDS011;38528;53.214;6.562;2022-11-15T08:04:21;64.38;;;32.78;;
52300;SDS011;38528;53.214;6.562;2022-11-15T08:06:46;69.55;;;32.22;;
52300;SDS011;38528;53.214;6.562;2022-11-15T08:09:12;61.40;;;32.42;;
52300;SDS011;38528;53.214;6.562;2022-11-15T08:11:38;74.05;;;33.88;;
52300;SDS011;38528;53.214;6.562;2022-11-15T08:14:03;59.67;;;31.85;;
52300;SDS011;38528;53.214;6.562;2022-11-15T08:16:29;62.75;;;31.35;;
52300;SDS011;38528;53.214;6.562;2022-11-15T08:18:55;62.55;;;30.90;;
52300;SDS011;38528;53.214;6.562;2022-11-15T08:21:21;58.92;;;29.52;;
52300;SDS011;38528;53.214;6.562;2022-11-15T08:23:48;58.25;;;30.27;;
52300;SDS011;38528;53.214;6.562;2022-11-15T08:26:13;54.63;;;29.67;;
52300;SDS011;38528;53.214;6.562;2022-11-15T08:28:40;54.55;;;28.75;;
52300;SDS011;38528;53.214;6.562;2022-11-15T08:31:05;55.00;;;28.95;;
52300;SDS011;38528;53.214;6.562;2022-11-15T08:33:31;52.88;;;27.83;;
52300;SDS011;38528;53.214;6.562;2022-11-15T08:35:58;48.72;;;28.17;;
52300;SDS011;38528;53.214;6.562;2022-11-15T08:38:25;49.20;;;27.10;;
52300;SDS011;38528;53.214;6.562;2022-11-15T08:40:52;44.30;;;27.58;;
52300;SDS011;38528;53.214;6.562;2022-11-15T08:43:19;49.60;;;27.95;;
52300;SDS011;38528;53.214;6.562;2022-11-15T08:45:45;45.25;;;26.13;;
52300;SDS011;38528;53.214;6.562;2022-11-15T08:48:11;45.90;;;27.23;;
52300;SDS011;38528;53.214;6.562;2022-11-15T08:50:36;43.25;;;26.50;;
52300;SDS011;38528;53.214;6.562;2022-11-15T08:53:09;43.15;;;25.10;;
52300;SDS011;38528;53.214;6.562;2022-11-15T08:55:36;42.95;;;24.95;;
52300;SDS011;38528;53.214;6.562;2022-11-15T08:58:03;38.05;;;24.35;;
52300;SDS011;38528;53.214;6.562;2022-11-15T09:00:28;41.22;;;23.50;;
52300;SDS011;38528;53.214;6.562;2022-11-15T09:02:54;40.72;;;23.98;;
52300;SDS011;38528;53.214;6.562;2022-11-15T09:05:20;36.83;;;23.55;;
52300;SDS011;38528;53.214;6.562;2022-11-15T09:07:46;37.88;;;22.13;;
52300;SDS011;38528;53.214;6.562;2022-11-15T09:10:11;37.17;;;21.80;;
52300;SDS011;38528;53.214;6.562;2022-11-15T09:12:37;32.83;;;21.98;;
52300;SDS011;38528;53.214;6.562;2022-11-15T09:15:03;34.50;;;19.08;;
52300;SDS011;38528;53.214;6.562;2022-11-15T09:17:30;30.95;;;21.33;;
52300;SDS011;38528;53.214;6.562;2022-11-15T09:19:55;31.10;;;19.52;;
52300;SDS011;38528;53.214;6.562;2022-11-15T09:22:22;33.47;;;19.20;;
52300;SDS011;38528;53.214;6.562;2022-11-15T09:24:48;32.90;;;21.00;;
52300;SDS011;38528;53.214;6.562;2022-11-15T09:27:14;30.92;;;20.25;;
52300;SDS011;38528;53.214;6.562;2022-11-15T09:29:40;31.92;;;19.92;;
52300;SDS011;38528;53.214;6.562;2022-11-15T09:32:06;31.35;;;20.15;;
52300;SDS011;38528;53.214;6.562;2022-11-15T09:34:32;30.92;;;19.88;;
52300;SDS011;38528;53.214;6.562;2022-11-15T09:36:58;25.90;;;18.92;;
52300;SDS011;38528;53.214;6.562;2022-11-15T09:39:24;28.50;;;18.05;;
52300;SDS011;38528;53.214;6.562;2022-11-15T09:46:54;27.10;;;17.73;;
52300;SDS011;38528;53.214;6.562;2022-11-15T09:49:21;30.75;;;18.55;;
52300;SDS011;38528;53.214;6.562;2022-11-15T09:51:49;25.05;;;18.52;;
52300;SDS011;38528;53.214;6.562;2022-11-15T09:54:29;27.75;;;18.45;;
52300;SDS011;38528;53.214;6.562;2022-11-15T09:56:57;27.40;;;19.25;;
52300;SDS011;38528;53.214;6.562;2022-11-15T10:04:38;23.85;;;16.15;;
52300;SDS011;38528;53.214;6.562;2022-11-15T10:12:16;28.50;;;17.45;;
52300;SDS011;38528;53.214;6.562;2022-11-15T10:14:43;30.50;;;17.67;;
52300;SDS011;38528;53.214;6.562;2022-11-15T10:17:14;24.52;;;16.58;;
52300;SDS011;38528;53.214;6.562;2022-11-15T10:25:09;23.88;;;16.42;;
52300;SDS011;38528;53.214;6.562;2022-11-15T10:27:37;27.85;;;16.52;;
52300;SDS011;38528;53.214;6.562;2022-11-15T10:30:08;26.17;;;16.88;;
52300;SDS011;38528;53.214;6.562;2022-11-15T10:32:36;25.25;;;15.82;;
52300;SDS011;38528;53.214;6.562;2022-11-15T10:35:15;28.48;;;16.55;;
52300;SDS011;38528;53.214;6.562;2022-11-15T10:37:41;24.52;;;16.27;;
52300;SDS011;38528;53.214;6.562;2022-11-15T10:40:28;26.15;;;16.90;;
52300;SDS011;38528;53.214;6.562;2022-11-15T10:43:04;25.48;;;16.25;;
52300;SDS011;38528;53.214;6.562;2022-11-15T10:45:31;22.58;;;15.63;;
52300;SDS011;38528;53.214;6.562;2022-11-15T10:50:43;25.00;;;15.82;;
52300;SDS011;38528;53.214;6.562;2022-11-15T10:55:41;22.58;;;16.08;;
52300;SDS011;38528;53.214;6.562;2022-11-15T10:58:24;22.48;;;15.55;;
52300;SDS011;38528;53.214;6.562;2022-11-15T11:00:53;27.35;;;15.98;;
52300;SDS011;38528;53.214;6.562;2022-11-15T11:05:48;24.40;;;16.42;;
52300;SDS011;38528;53.214;6.562;2022-11-15T11:08:28;28.17;;;17.05;;
52300;SDS011;38528;53.214;6.562;2022-11-15T11:10:54;26.77;;;17.63;;
52300;SDS011;38528;53.214;6.562;2022-11-15T11:15:59;28.05;;;16.77;;
52300;SDS011;38528;53.214;6.562;2022-11-15T11:18:34;26.50;;;16.95;;
52300;SDS011;38528;53.214;6.562;2022-11-15T11:21:04;26.77;;;17.58;;
52300;SDS011;38528;53.214;6.562;2022-11-15T11:26:15;26.60;;;16.38;;
52300;SDS011;38528;53.214;6.562;2022-11-15T11:31:31;24.65;;;17.17;;
52300;SDS011;38528;53.214;6.562;2022-11-15T11:34:02;26.38;;;17.55;;
52300;SDS011;38528;53.214;6.562;2022-11-15T11:36:39;24.30;;;16.95;;
52300;SDS011;38528;53.214;6.562;2022-11-15T11:46:52;26.52;;;15.27;;
52300;SDS011;38528;53.214;6.562;2022-11-15T11:49:21;21.23;;;14.77;;
52300;SDS011;38528;53.214;6.562;2022-11-15T11:52:00;20.23;;;13.00;;
52300;SDS011;38528;53.214;6.562;2022-11-15T11:54:32;19.42;;;12.75;;
52300;SDS011;38528;53.214;6.562;2022-11-15T11:57:02;17.05;;;11.43;;
52300;SDS011;38528;53.214;6.562;2022-11-15T11:59:32;14.30;;;10.93;;
52300;SDS011;38528;53.214;6.562;2022-11-15T12:02:01;13.60;;;9.70;;
52300;SDS011;38528;53.214;6.562;2022-11-15T12:04:34;17.33;;;10.50;;
52300;SDS011;38528;53.214;6.562;2022-11-15T12:17:01;11.90;;;7.25;;
52300;SDS011;38528;53.214;6.562;2022-11-15T12:19:28;11.43;;;7.68;;
52300;SDS011;38528;53.214;6.562;2022-11-15T12:21:57;9.10;;;6.63;;
52300;SDS011;38528;53.214;6.562;2022-11-15T12:24:29;9.52;;;7.00;;
52300;SDS011;38528;53.214;6.562;2022-11-15T12:27:00;9.38;;;6.30;;
52300;SDS011;38528;53.214;6.562;2022-11-15T12:29:46;10.32;;;6.57;;
52300;SDS011;38528;53.214;6.562;2022-11-15T12:32:24;8.80;;;6.00;;
52300;SDS011;38528;53.214;6.562;2022-11-15T12:34:51;11.20;;;5.53;;
52300;SDS011;38528;53.214;6.562;2022-11-15T12:37:34;10.48;;;5.70;;
52300;SDS011;38528;53.214;6.562;2022-11-15T12:40:05;9.70;;;5.40;;
52300;SDS011;38528;53.214;6.562;2022-11-15T12:42:41;9.05;;;5.70;;
52300;SDS011;38528;53.214;6.562;2022-11-15T12:45:28;9.52;;;5.95;;
52300;SDS011;38528;53.214;6.562;2022-11-15T12:47:56;11.63;;;6.10;;
52300;SDS011;38528;53.214;6.562;2022-11-15T12:56:34;9.88;;;5.30;;
52300;SDS011;38528;53.214;6.562;2022-11-15T13:04:11;10.02;;;4.78;;
52300;SDS011;38528;53.214;6.562;2022-11-15T13:06:55;8.40;;;5.10;;
52300;SDS011;38528;53.214;6.562;2022-11-15T13:11:54;6.20;;;4.30;;
52300;SDS011;38528;53.214;6.562;2022-11-15T13:14:54;8.70;;;4.13;;
52300;SDS011;38528;53.214;6.562;2022-11-15T13:19:49;8.57;;;4.13;;
52300;SDS011;38528;53.214;6.562;2022-11-15T13:22:18;9.57;;;4.00;;
52300;SDS011;38528;53.214;6.562;2022-11-15T13:25:03;7.47;;;4.13;;
52300;SDS011;38528;53.214;6.562;2022-11-15T13:27:29;7.00;;;4.30;;
52300;SDS011;38528;53.214;6.562;2022-11-15T13:29:55;5.65;;;4.13;;
52300;SDS011;38528;53.214;6.562;2022-11-15T13:32:21;7.32;;;4.20;;
52300;SDS011;38528;53.214;6.562;2022-11-15T13:34:48;10.48;;;4.40;;
52300;SDS011;38528;53.214;6.562;2022-11-15T13:39:47;7.75;;;4.40;;
52300;SDS011;38528;53.214;6.562;2022-11-15T13:42:17;8.45;;;4.85;;
52300;SDS011;38528;53.214;6.562;2022-11-15T13:45:01;8.25;;;4.28;;
52300;SDS011;38528;53.214;6.562;2022-11-15T13:47:29;7.50;;;4.55;;
52300;SDS011;38528;53.214;6.562;2022-11-15T13:49:58;10.23;;;4.07;;
52300;SDS011;38528;53.214;6.562;2022-11-15T13:52:31;8.00;;;4.07;;
52300;SDS011;38528;53.214;6.562;2022-11-15T13:55:03;8.45;;;3.92;;
52300;SDS011;38528;53.214;6.562;2022-11-15T14:03:05;8.05;;;4.03;;
52300;SDS011;38528;53.214;6.562;2022-11-15T14:06:02;8.60;;;3.55;;
52300;SDS011;38528;53.214;6.562;2022-11-15T14:08:35;5.70;;;3.50;;
52300;SDS011;38528;53.214;6.562;2022-11-15T14:11:15;5.40;;;3.20;;
52300;SDS011;38528;53.214;6.562;2022-11-15T14:13:42;5.50;;;3.30;;
52300;SDS011;38528;53.214;6.562;2022-11-15T14:19:06;6.53;;;3.60;;
52300;SDS011;38528;53.214;6.562;2022-11-15T14:21:36;9.05;;;3.20;;
52300;SDS011;38528;53.214;6.562;2022-11-15T14:24:18;7.75;;;3.20;;
52300;SDS011;38528;53.214;6.562;2022-11-15T14:26:45;6.90;;;3.45;;
52300;SDS011;38528;53.214;6.562;2022-11-15T14:29:25;7.22;;;3.20;;
52300;SDS011;38528;53.214;6.562;2022-11-15T14:31:52;8.50;;;3.28;;
52300;SDS011;38528;53.214;6.562;2022-11-15T14:34:18;8.18;;;3.55;;
52300;SDS011;38528;53.214;6.562;2022-11-15T14:36:47;8.40;;;3.53;;
52300;SDS011;38528;53.214;6.562;2022-11-15T14:39:12;8.13;;;3.30;;
52300;SDS011;38528;53.214;6.562;2022-11-15T14:41:38;7.28;;;3.50;;
52300;SDS011;38528;53.214;6.562;2022-11-15T14:44:04;4.88;;;3.22;;
52300;SDS011;38528;53.214;6.562;2022-11-15T14:46:30;5.47;;;3.45;;
52300;SDS011;38528;53.214;6.562;2022-11-15T14:48:56;6.40;;;3.00;;
52300;SDS011;38528;53.214;6.562;2022-11-15T14:51:22;6.25;;;2.85;;
52300;SDS011;38528;53.214;6.562;2022-11-15T14:53:48;6.05;;;3.00;;
52300;SDS011;38528;53.214;6.562;2022-11-15T14:56:14;6.63;;;2.60;;
52300;SDS011;38528;53.214;6.562;2022-11-15T14:58:41;6.35;;;2.70;;
52300;SDS011;38528;53.214;6.562;2022-11-15T15:01:12;6.57;;;2.80;;
52300;SDS011;38528;53.214;6.562;2022-11-15T15:03:44;5.05;;;2.63;;
52300;SDS011;38528;53.214;6.562;2022-11-15T15:06:10;5.22;;;2.60;;
52300;SDS011;38528;53.214;6.562;2022-11-15T15:08:37;5.13;;;2.88;;
52300;SDS011;38528;53.214;6.562;2022-11-15T15:11:06;5.60;;;2.65;;
52300;SDS011;38528;53.214;6.562;2022-11-15T15:13:41;5.88;;;3.13;;
52300;SDS011;38528;53.214;6.562;2022-11-15T15:16:07;6.32;;;2.63;;
52300;SDS011;38528;53.214;6.562;2022-11-15T15:18:33;5.63;;;2.50;;
52300;SDS011;38528;53.214;6.562;2022-11-15T15:20:59;4.47;;;2.60;;
52300;SDS011;38528;53.214;6.562;2022-11-15T15:23:28;5.15;;;2.60;;
52300;SDS011;38528;53.214;6.562;2022-11-15T15:25:56;4.93;;;2.92;;
52300;SDS011;38528;53.214;6.562;2022-11-15T15:28:21;9.10;;;3.20;;
52300;SDS011;38528;53.214;6.562;2022-11-15T15:30:47;5.25;;;3.33;;
52300;SDS011;38528;53.214;6.562;2022-11-15T15:33:14;5.22;;;3.10;;
52300;SDS011;38528;53.214;6.562;2022-11-15T15:35:40;6.38;;;3.53;;
52300;SDS011;38528;53.214;6.562;2022-11-15T15:38:06;6.72;;;3.50;;
52300;SDS011;38528;53.214;6.562;2022-11-15T15:40:32;7.38;;;3.60;;
52300;SDS011;38528;53.214;6.562;2022-11-15T15:42:58;7.60;;;3.95;;
52300;SDS011;38528;53.214;6.562;2022-11-15T15:45:24;9.60;;;3.80;;
52300;SDS011;38528;53.214;6.562;2022-11-15T15:47:51;7.38;;;3.80;;
52300;SDS011;38528;53.214;6.562;2022-11-15T15:52:52;6.03;;;3.67;;
52300;SDS011;38528;53.214;6.562;2022-11-15T15:55:19;8.20;;;4.20;;
52300;SDS011;38528;53.214;6.562;2022-11-15T15:57:45;5.85;;;3.90;;
52300;SDS011;38528;53.214;6.562;2022-11-15T16:00:12;7.18;;;3.83;;
52300;SDS011;38528;53.214;6.562;2022-11-15T16:02:39;7.60;;;3.63;;
52300;SDS011;38528;53.214;6.562;2022-11-15T16:05:05;7.78;;;4.43;;
52300;SDS011;38528;53.214;6.562;2022-11-15T16:07:31;9.35;;;4.90;;
52300;SDS011;38528;53.214;6.562;2022-11-15T16:09:57;8.20;;;4.72;;
52300;SDS011;38528;53.214;6.562;2022-11-15T16:12:26;7.28;;;4.78;;
52300;SDS011;38528;53.214;6.562;2022-11-15T16:14:55;8.32;;;4.93;;
52300;SDS011;38528;53.214;6.562;2022-11-15T16:17:21;6.63;;;4.70;;
52300;SDS011;38528;53.214;6.562;2022-11-15T16:19:49;7.65;;;4.60;;
52300;SDS011;38528;53.214;6.562;2022-11-15T16:22:15;10.10;;;5.30;;
52300;SDS011;38528;53.214;6.562;2022-11-15T16:24:40;7.88;;;5.03;;
52300;SDS011;38528;53.214;6.562;2022-11-15T16:27:10;6.45;;;4.78;;
52300;SDS011;38528;53.214;6.562;2022-11-15T16:32:08;6.95;;;4.60;;
52300;SDS011;38528;53.214;6.562;2022-11-15T16:34:33;7.82;;;5.07;;
52300;SDS011;38528;53.214;6.562;2022-11-15T16:36:59;7.07;;;4.85;;
52300;SDS011;38528;53.214;6.562;2022-11-15T16:39:25;7.55;;;4.72;;
52300;SDS011;38528;53.214;6.562;2022-11-15T16:41:54;6.03;;;4.63;;
52300;SDS011;38528;53.214;6.562;2022-11-15T16:44:19;10.15;;;4.78;;